sensor_id;sensor_type;location;lat;lon;timestamp;temperature;humidity
16881;DHT22;8557;52.068;5.198;2022-07-23T00:01:20;17.10;99.90
16881;DHT22;8557;52.068;5.198;2022-07-23T00:03:47;17.10;99.90
16881;DHT22;8557;52.068;5.198;2022-07-23T00:06:14;17.00;99.90
16881;DHT22;8557;52.068;5.198;2022-07-23T00:08:41;16.90;99.90
16881;DHT22;8557;52.068;5.198;2022-07-23T00:11:09;16.90;99.90
16881;DHT22;8557;52.068;5.198;2022-07-23T00:13:36;16.90;99.90
16881;DHT22;8557;52.068;5.198;2022-07-23T00:16:03;16.80;99.90
16881;DHT22;8557;52.068;5.198;2022-07-23T00:18:30;16.80;99.90
16881;DHT22;8557;52.068;5.198;2022-07-23T00:20:57;16.70;99.90
16881;DHT22;8557;52.068;5.198;2022-07-23T00:23:24;16.70;99.90
16881;DHT22;8557;52.068;5.198;2022-07-23T00:25:51;16.70;99.90
16881;DHT22;8557;52.068;5.198;2022-07-23T00:28:19;16.70;99.90
16881;DHT22;8557;52.068;5.198;2022-07-23T00:30:45;16.60;99.90
16881;DHT22;8557;52.068;5.198;2022-07-23T00:33:12;16.60;99.90
16881;DHT22;8557;52.068;5.198;2022-07-23T00:35:40;16.60;99.90
16881;DHT22;8557;52.068;5.198;2022-07-23T00:38:08;16.60;99.90
16881;DHT22;8557;52.068;5.198;2022-07-23T00:40:36;16.50;99.90
16881;DHT22;8557;52.068;5.198;2022-07-23T00:43:03;16.50;99.90
16881;DHT22;8557;52.068;5.198;2022-07-23T00:45:32;16.50;99.90
16881;DHT22;8557;52.068;5.198;2022-07-23T00:48:00;16.50;99.90
16881;DHT22;8557;52.068;5.198;2022-07-23T00:50:27;16.40;99.90
16881;DHT22;8557;52.068;5.198;2022-07-23T00:52:54;16.40;99.90
16881;DHT22;8557;52.068;5.198;2022-07-23T00:55:21;16.40;99.90
16881;DHT22;8557;52.068;5.198;2022-07-23T00:57:48;16.40;99.90
16881;DHT22;8557;52.068;5.198;2022-07-23T01:00:16;16.40;99.90
16881;DHT22;8557;52.068;5.198;2022-07-23T01:02:44;16.30;99.90
16881;DHT22;8557;52.068;5.198;2022-07-23T01:05:11;16.30;99.90
16881;DHT22;8557;52.068;5.198;2022-07-23T01:07:38;16.30;99.90
16881;DHT22;8557;52.068;5.198;2022-07-23T01:10:06;16.30;99.90
16881;DHT22;8557;52.068;5.198;2022-07-23T01:12:53;16.20;99.90
16881;DHT22;8557;52.068;5.198;2022-07-23T01:15:20;16.20;99.90
16881;DHT22;8557;52.068;5.198;2022-07-23T01:17:49;16.20;99.90
16881;DHT22;8557;52.068;5.198;2022-07-23T01:20:16;16.20;99.90
16881;DHT22;8557;52.068;5.198;2022-07-23T01:22:44;16.10;99.90
16881;DHT22;8557;52.068;5.198;2022-07-23T01:25:11;16.10;99.90
16881;DHT22;8557;52.068;5.198;2022-07-23T01:27:38;16.20;99.90
16881;DHT22;8557;52.068;5.198;2022-07-23T01:30:06;16.10;99.90
16881;DHT22;8557;52.068;5.198;2022-07-23T01:32:32;16.10;99.90
16881;DHT22;8557;52.068;5.198;2022-07-23T01:34:59;16.10;99.90
16881;DHT22;8557;52.068;5.198;2022-07-23T01:37:26;16.00;99.90
16881;DHT22;8557;52.068;5.198;2022-07-23T01:39:54;16.00;99.90
16881;DHT22;8557;52.068;5.198;2022-07-23T01:42:21;15.90;99.90
16881;DHT22;8557;52.068;5.198;2022-07-23T01:44:48;16.00;99.90
16881;DHT22;8557;52.068;5.198;2022-07-23T01:47:16;15.90;99.90
16881;DHT22;8557;52.068;5.198;2022-07-23T01:49:43;15.90;99.90
16881;DHT22;8557;52.068;5.198;2022-07-23T01:52:09;15.80;99.90
16881;DHT22;8557;52.068;5.198;2022-07-23T01:54:38;15.80;99.90
16881;DHT22;8557;52.068;5.198;2022-07-23T01:57:07;15.80;99.90
16881;DHT22;8557;52.068;5.198;2022-07-23T01:59:34;15.80;99.90
16881;DHT22;8557;52.068;5.198;2022-07-23T02:02:01;15.70;99.90
16881;DHT22;8557;52.068;5.198;2022-07-23T02:04:29;15.70;99.90
16881;DHT22;8557;52.068;5.198;2022-07-23T02:06:56;15.70;99.90
16881;DHT22;8557;52.068;5.198;2022-07-23T02:09:22;15.70;99.90
16881;DHT22;8557;52.068;5.198;2022-07-23T02:11:49;15.60;99.90
16881;DHT22;8557;52.068;5.198;2022-07-23T02:14:17;15.60;99.90
16881;DHT22;8557;52.068;5.198;2022-07-23T02:16:44;15.60;99.90
16881;DHT22;8557;52.068;5.198;2022-07-23T02:19:11;15.60;99.90
16881;DHT22;8557;52.068;5.198;2022-07-23T02:21:38;15.60;99.90
16881;DHT22;8557;52.068;5.198;2022-07-23T02:24:05;15.50;99.90
16881;DHT22;8557;52.068;5.198;2022-07-23T02:26:32;15.50;99.90
16881;DHT22;8557;52.068;5.198;2022-07-23T02:29:00;15.50;99.90
16881;DHT22;8557;52.068;5.198;2022-07-23T02:31:28;15.50;99.90
16881;DHT22;8557;52.068;5.198;2022-07-23T02:33:55;15.40;99.90
16881;DHT22;8557;52.068;5.198;2022-07-23T02:36:23;15.40;99.90
16881;DHT22;8557;52.068;5.198;2022-07-23T02:38:50;15.40;99.90
16881;DHT22;8557;52.068;5.198;2022-07-23T02:41:16;15.40;99.90
16881;DHT22;8557;52.068;5.198;2022-07-23T02:43:43;15.40;99.90
16881;DHT22;8557;52.068;5.198;2022-07-23T02:46:10;15.30;99.90
16881;DHT22;8557;52.068;5.198;2022-07-23T02:48:38;15.30;99.90
16881;DHT22;8557;52.068;5.198;2022-07-23T02:51:05;15.30;99.90
16881;DHT22;8557;52.068;5.198;2022-07-23T02:53:32;15.30;99.90
16881;DHT22;8557;52.068;5.198;2022-07-23T02:55:59;15.30;99.90
16881;DHT22;8557;52.068;5.198;2022-07-23T02:58:25;15.30;99.90
16881;DHT22;8557;52.068;5.198;2022-07-23T03:00:52;15.30;99.90
16881;DHT22;8557;52.068;5.198;2022-07-23T03:03:19;15.30;99.90
16881;DHT22;8557;52.068;5.198;2022-07-23T03:05:48;15.20;99.90
16881;DHT22;8557;52.068;5.198;2022-07-23T03:08:14;15.30;99.90
16881;DHT22;8557;52.068;5.198;2022-07-23T03:10:41;15.20;99.90
16881;DHT22;8557;52.068;5.198;2022-07-23T03:13:08;15.20;99.90
16881;DHT22;8557;52.068;5.198;2022-07-23T03:15:35;15.20;99.90
16881;DHT22;8557;52.068;5.198;2022-07-23T03:18:02;15.20;99.90
16881;DHT22;8557;52.068;5.198;2022-07-23T03:20:28;15.20;99.90
16881;DHT22;8557;52.068;5.198;2022-07-23T03:22:56;15.10;99.90
16881;DHT22;8557;52.068;5.198;2022-07-23T03:25:23;15.10;99.90
16881;DHT22;8557;52.068;5.198;2022-07-23T03:27:50;15.10;99.90
16881;DHT22;8557;52.068;5.198;2022-07-23T03:30:17;15.10;99.90
16881;DHT22;8557;52.068;5.198;2022-07-23T03:32:44;15.10;99.90
16881;DHT22;8557;52.068;5.198;2022-07-23T03:35:10;15.10;99.90
16881;DHT22;8557;52.068;5.198;2022-07-23T03:37:37;15.10;99.90
16881;DHT22;8557;52.068;5.198;2022-07-23T03:40:07;15.10;99.90
16881;DHT22;8557;52.068;5.198;2022-07-23T03:42:33;15.00;99.90
16881;DHT22;8557;52.068;5.198;2022-07-23T03:45:03;15.00;99.90
16881;DHT22;8557;52.068;5.198;2022-07-23T03:47:30;15.00;99.90
16881;DHT22;8557;52.068;5.198;2022-07-23T03:49:56;15.00;99.90
16881;DHT22;8557;52.068;5.198;2022-07-23T03:52:23;15.00;99.90
16881;DHT22;8557;52.068;5.198;2022-07-23T03:54:50;15.00;99.90
16881;DHT22;8557;52.068;5.198;2022-07-23T03:57:18;15.00;99.90
16881;DHT22;8557;52.068;5.198;2022-07-23T03:59:45;15.00;99.90
16881;DHT22;8557;52.068;5.198;2022-07-23T04:02:12;15.00;99.90
16881;DHT22;8557;52.068;5.198;2022-07-23T04:04:39;15.00;99.90
16881;DHT22;8557;52.068;5.198;2022-07-23T04:07:05;15.00;99.90
16881;DHT22;8557;52.068;5.198;2022-07-23T04:09:33;15.00;99.90
16881;DHT22;8557;52.068;5.198;2022-07-23T04:12:00;15.00;99.90
16881;DHT22;8557;52.068;5.198;2022-07-23T04:14:29;15.00;99.90
16881;DHT22;8557;52.068;5.198;2022-07-23T04:16:55;14.90;99.90
16881;DHT22;8557;52.068;5.198;2022-07-23T04:19:22;15.00;99.90
16881;DHT22;8557;52.068;5.198;2022-07-23T04:21:49;15.00;99.90
16881;DHT22;8557;52.068;5.198;2022-07-23T04:24:16;15.00;99.90
16881;DHT22;8557;52.068;5.198;2022-07-23T04:26:43;15.00;99.90
16881;DHT22;8557;52.068;5.198;2022-07-23T04:29:10;15.00;99.90
16881;DHT22;8557;52.068;5.198;2022-07-23T04:31:38;15.00;99.90
16881;DHT22;8557;52.068;5.198;2022-07-23T04:34:05;15.00;99.90
16881;DHT22;8557;52.068;5.198;2022-07-23T04:36:32;15.00;99.90
16881;DHT22;8557;52.068;5.198;2022-07-23T04:38:58;15.10;99.90
16881;DHT22;8557;52.068;5.198;2022-07-23T04:41:25;15.10;99.90
16881;DHT22;8557;52.068;5.198;2022-07-23T04:43:52;15.10;99.90
16881;DHT22;8557;52.068;5.198;2022-07-23T04:46:19;15.10;99.90
16881;DHT22;8557;52.068;5.198;2022-07-23T04:48:47;15.20;99.90
16881;DHT22;8557;52.068;5.198;2022-07-23T04:51:13;15.20;99.90
16881;DHT22;8557;52.068;5.198;2022-07-23T04:53:40;15.30;99.90
16881;DHT22;8557;52.068;5.198;2022-07-23T04:56:07;15.40;99.90
16881;DHT22;8557;52.068;5.198;2022-07-23T04:58:34;15.40;99.90
16881;DHT22;8557;52.068;5.198;2022-07-23T05:01:01;15.50;99.90
16881;DHT22;8557;52.068;5.198;2022-07-23T05:03:28;15.50;99.90
16881;DHT22;8557;52.068;5.198;2022-07-23T05:05:56;15.60;99.90
16881;DHT22;8557;52.068;5.198;2022-07-23T05:08:23;15.60;99.90
16881;DHT22;8557;52.068;5.198;2022-07-23T05:10:50;15.70;99.90
16881;DHT22;8557;52.068;5.198;2022-07-23T05:13:17;15.70;99.90
16881;DHT22;8557;52.068;5.198;2022-07-23T05:15:45;15.80;99.90
16881;DHT22;8557;52.068;5.198;2022-07-23T05:18:11;15.80;99.90
16881;DHT22;8557;52.068;5.198;2022-07-23T05:20:38;15.90;99.90
16881;DHT22;8557;52.068;5.198;2022-07-23T05:23:07;16.00;99.90
16881;DHT22;8557;52.068;5.198;2022-07-23T05:25:34;16.00;99.90
16881;DHT22;8557;52.068;5.198;2022-07-23T05:28:01;16.10;99.90
16881;DHT22;8557;52.068;5.198;2022-07-23T05:30:28;16.10;99.90
16881;DHT22;8557;52.068;5.198;2022-07-23T05:32:54;16.20;99.90
16881;DHT22;8557;52.068;5.198;2022-07-23T05:35:21;16.30;99.90
16881;DHT22;8557;52.068;5.198;2022-07-23T05:37:48;16.30;99.90
16881;DHT22;8557;52.068;5.198;2022-07-23T05:40:19;16.40;99.90
16881;DHT22;8557;52.068;5.198;2022-07-23T05:42:46;16.50;99.90
16881;DHT22;8557;52.068;5.198;2022-07-23T05:45:13;16.50;99.90
16881;DHT22;8557;52.068;5.198;2022-07-23T05:47:41;16.60;99.90
16881;DHT22;8557;52.068;5.198;2022-07-23T05:50:08;16.70;99.90
16881;DHT22;8557;52.068;5.198;2022-07-23T05:52:35;16.70;99.90
16881;DHT22;8557;52.068;5.198;2022-07-23T05:57:30;17.00;99.90
16881;DHT22;8557;52.068;5.198;2022-07-23T05:59:57;16.80;99.90
16881;DHT22;8557;52.068;5.198;2022-07-23T06:02:24;16.90;99.90
16881;DHT22;8557;52.068;5.198;2022-07-23T06:04:51;16.90;99.90
16881;DHT22;8557;52.068;5.198;2022-07-23T06:07:18;17.00;99.90
16881;DHT22;8557;52.068;5.198;2022-07-23T06:09:45;17.00;99.90
16881;DHT22;8557;52.068;5.198;2022-07-23T06:12:12;17.10;99.90
16881;DHT22;8557;52.068;5.198;2022-07-23T06:14:40;17.20;99.90
16881;DHT22;8557;52.068;5.198;2022-07-23T06:17:07;17.20;99.90
16881;DHT22;8557;52.068;5.198;2022-07-23T06:19:34;17.20;99.90
16881;DHT22;8557;52.068;5.198;2022-07-23T06:22:01;17.30;99.90
16881;DHT22;8557;52.068;5.198;2022-07-23T06:24:28;17.30;99.90
16881;DHT22;8557;52.068;5.198;2022-07-23T06:26:55;17.40;99.90
16881;DHT22;8557;52.068;5.198;2022-07-23T06:29:22;17.40;99.90
16881;DHT22;8557;52.068;5.198;2022-07-23T06:31:50;17.50;99.90
16881;DHT22;8557;52.068;5.198;2022-07-23T06:34:17;17.50;99.90
16881;DHT22;8557;52.068;5.198;2022-07-23T06:36:43;17.60;99.90
16881;DHT22;8557;52.068;5.198;2022-07-23T06:39:10;17.60;99.90
16881;DHT22;8557;52.068;5.198;2022-07-23T06:41:37;17.70;99.90
16881;DHT22;8557;52.068;5.198;2022-07-23T06:44:04;17.60;99.90
16881;DHT22;8557;52.068;5.198;2022-07-23T06:46:31;17.70;99.90
16881;DHT22;8557;52.068;5.198;2022-07-23T06:48:59;17.90;99.90
16881;DHT22;8557;52.068;5.198;2022-07-23T06:51:25;17.90;99.90
16881;DHT22;8557;52.068;5.198;2022-07-23T06:53:52;18.10;99.90
16881;DHT22;8557;52.068;5.198;2022-07-23T06:56:19;18.20;99.90
16881;DHT22;8557;52.068;5.198;2022-07-23T06:58:46;18.10;99.90
16881;DHT22;8557;52.068;5.198;2022-07-23T07:01:13;18.20;99.90
16881;DHT22;8557;52.068;5.198;2022-07-23T07:03:40;18.30;99.90
16881;DHT22;8557;52.068;5.198;2022-07-23T07:06:08;18.40;99.90
16881;DHT22;8557;52.068;5.198;2022-07-23T07:08:35;18.40;99.90
16881;DHT22;8557;52.068;5.198;2022-07-23T07:11:01;18.50;99.90
16881;DHT22;8557;52.068;5.198;2022-07-23T07:13:28;18.50;99.90
16881;DHT22;8557;52.068;5.198;2022-07-23T07:15:55;18.60;99.90
16881;DHT22;8557;52.068;5.198;2022-07-23T07:18:22;18.60;99.90
16881;DHT22;8557;52.068;5.198;2022-07-23T07:20:49;18.70;99.90
16881;DHT22;8557;52.068;5.198;2022-07-23T07:23:17;18.70;99.90
16881;DHT22;8557;52.068;5.198;2022-07-23T07:25:44;18.80;99.90
16881;DHT22;8557;52.068;5.198;2022-07-23T07:28:10;18.90;99.90
16881;DHT22;8557;52.068;5.198;2022-07-23T07:30:37;18.90;99.90
16881;DHT22;8557;52.068;5.198;2022-07-23T07:33:04;18.80;99.90
16881;DHT22;8557;52.068;5.198;2022-07-23T07:35:31;18.90;99.90
16881;DHT22;8557;52.068;5.198;2022-07-23T07:37:58;19.00;99.90
16881;DHT22;8557;52.068;5.198;2022-07-23T07:40:26;19.00;99.90
16881;DHT22;8557;52.068;5.198;2022-07-23T07:42:54;19.10;99.90
16881;DHT22;8557;52.068;5.198;2022-07-23T07:45:23;19.10;99.90
16881;DHT22;8557;52.068;5.198;2022-07-23T07:47:50;19.20;99.90
16881;DHT22;8557;52.068;5.198;2022-07-23T07:50:17;19.20;99.90
16881;DHT22;8557;52.068;5.198;2022-07-23T07:52:44;19.20;99.90
16881;DHT22;8557;52.068;5.198;2022-07-23T07:55:11;19.20;99.90
16881;DHT22;8557;52.068;5.198;2022-07-23T07:57:40;19.20;99.90
16881;DHT22;8557;52.068;5.198;2022-07-23T08:00:09;19.20;99.90
16881;DHT22;8557;52.068;5.198;2022-07-23T08:02:43;19.30;99.90
16881;DHT22;8557;52.068;5.198;2022-07-23T08:05:10;19.30;99.90
16881;DHT22;8557;52.068;5.198;2022-07-23T08:07:38;19.30;99.90
16881;DHT22;8557;52.068;5.198;2022-07-23T08:10:06;19.30;99.90
16881;DHT22;8557;52.068;5.198;2022-07-23T08:12:46;19.40;99.90
16881;DHT22;8557;52.068;5.198;2022-07-23T08:15:14;19.50;99.90
16881;DHT22;8557;52.068;5.198;2022-07-23T08:17:42;19.50;99.90
16881;DHT22;8557;52.068;5.198;2022-07-23T08:20:09;19.50;99.90
16881;DHT22;8557;52.068;5.198;2022-07-23T08:22:44;19.50;97.40
16881;DHT22;8557;52.068;5.198;2022-07-23T08:25:12;19.70;99.90
16881;DHT22;8557;52.068;5.198;2022-07-23T08:27:39;19.80;99.90
16881;DHT22;8557;52.068;5.198;2022-07-23T08:30:08;19.90;99.50
16881;DHT22;8557;52.068;5.198;2022-07-23T08:32:48;20.00;95.20
16881;DHT22;8557;52.068;5.198;2022-07-23T08:35:15;20.00;92.00
16881;DHT22;8557;52.068;5.198;2022-07-23T08:37:42;20.10;88.20
16881;DHT22;8557;52.068;5.198;2022-07-23T08:40:10;20.20;72.80
16881;DHT22;8557;52.068;5.198;2022-07-23T08:42:37;20.30;67.80
16881;DHT22;8557;52.068;5.198;2022-07-23T08:45:08;20.30;52.30
16881;DHT22;8557;52.068;5.198;2022-07-23T08:47:37;20.40;43.20
16881;DHT22;8557;52.068;5.198;2022-07-23T08:50:07;20.40;38.30
16881;DHT22;8557;52.068;5.198;2022-07-23T08:52:34;20.40;30.40
16881;DHT22;8557;52.068;5.198;2022-07-23T08:55:02;20.40;28.40
16881;DHT22;8557;52.068;5.198;2022-07-23T08:57:29;20.40;31.10
16881;DHT22;8557;52.068;5.198;2022-07-23T08:59:56;20.40;27.00
16881;DHT22;8557;52.068;5.198;2022-07-23T09:02:25;20.40;35.00
16881;DHT22;8557;52.068;5.198;2022-07-23T09:04:51;20.50;29.70
16881;DHT22;8557;52.068;5.198;2022-07-23T09:07:18;20.50;27.30
16881;DHT22;8557;52.068;5.198;2022-07-23T09:09:45;20.60;28.00
16881;DHT22;8557;52.068;5.198;2022-07-23T09:12:12;20.70;29.50
16881;DHT22;8557;52.068;5.198;2022-07-23T09:14:41;20.80;29.00
16881;DHT22;8557;52.068;5.198;2022-07-23T09:17:10;20.90;28.10
16881;DHT22;8557;52.068;5.198;2022-07-23T09:19:38;21.00;27.90
16881;DHT22;8557;52.068;5.198;2022-07-23T09:22:19;21.10;27.50
16881;DHT22;8557;52.068;5.198;2022-07-23T09:25:03;21.10;22.00
16881;DHT22;8557;52.068;5.198;2022-07-23T09:27:46;21.30;23.60
16881;DHT22;8557;52.068;5.198;2022-07-23T09:30:13;21.40;23.20
16881;DHT22;8557;52.068;5.198;2022-07-23T09:32:41;21.40;20.80
16881;DHT22;8557;52.068;5.198;2022-07-23T09:35:09;21.60;21.60
16881;DHT22;8557;52.068;5.198;2022-07-23T09:37:36;21.60;21.10
16881;DHT22;8557;52.068;5.198;2022-07-23T09:40:05;21.70;15.20
16881;DHT22;8557;52.068;5.198;2022-07-23T09:42:32;21.70;11.50
16881;DHT22;8557;52.068;5.198;2022-07-23T09:44:59;21.80;6.00
16881;DHT22;8557;52.068;5.198;2022-07-23T09:47:28;21.80;1.50
16881;DHT22;8557;52.068;5.198;2022-07-23T09:49:59;21.90;1.00
16881;DHT22;8557;52.068;5.198;2022-07-23T09:52:28;21.90;1.00
16881;DHT22;8557;52.068;5.198;2022-07-23T09:54:59;21.90;1.00
16881;DHT22;8557;52.068;5.198;2022-07-23T09:57:26;22.00;1.00
16881;DHT22;8557;52.068;5.198;2022-07-23T09:59:56;22.10;1.00
16881;DHT22;8557;52.068;5.198;2022-07-23T10:02:24;22.20;1.00
16881;DHT22;8557;52.068;5.198;2022-07-23T10:04:53;22.20;1.00
16881;DHT22;8557;52.068;5.198;2022-07-23T10:07:21;22.20;1.00
16881;DHT22;8557;52.068;5.198;2022-07-23T10:09:50;22.20;1.00
16881;DHT22;8557;52.068;5.198;2022-07-23T10:12:19;22.10;1.00
16881;DHT22;8557;52.068;5.198;2022-07-23T10:15:04;22.10;1.00
16881;DHT22;8557;52.068;5.198;2022-07-23T10:17:31;22.30;1.00
16881;DHT22;8557;52.068;5.198;2022-07-23T10:19:58;22.30;1.00
16881;DHT22;8557;52.068;5.198;2022-07-23T10:22:29;22.40;1.00
16881;DHT22;8557;52.068;5.198;2022-07-23T10:25:12;22.50;1.00
16881;DHT22;8557;52.068;5.198;2022-07-23T10:31:01;22.70;1.00
16881;DHT22;8557;52.068;5.198;2022-07-23T10:33:39;22.80;1.00
16881;DHT22;8557;52.068;5.198;2022-07-23T10:36:12;22.80;1.00
16881;DHT22;8557;52.068;5.198;2022-07-23T10:38:50;23.00;1.00
16881;DHT22;8557;52.068;5.198;2022-07-23T10:41:33;23.10;1.00
16881;DHT22;8557;52.068;5.198;2022-07-23T10:44:07;23.20;1.00
16881;DHT22;8557;52.068;5.198;2022-07-23T10:46:35;23.30;1.00
16881;DHT22;8557;52.068;5.198;2022-07-23T10:49:23;23.30;1.00
16881;DHT22;8557;52.068;5.198;2022-07-23T10:52:17;23.40;1.00
16881;DHT22;8557;52.068;5.198;2022-07-23T10:54:45;23.40;1.00
16881;DHT22;8557;52.068;5.198;2022-07-23T10:57:14;23.40;1.00
16881;DHT22;8557;52.068;5.198;2022-07-23T11:02:52;23.50;1.00
16881;DHT22;8557;52.068;5.198;2022-07-23T11:05:22;23.60;1.00
16881;DHT22;8557;52.068;5.198;2022-07-23T11:08:14;23.70;1.00
16881;DHT22;8557;52.068;5.198;2022-07-23T11:10:44;23.80;1.00
16881;DHT22;8557;52.068;5.198;2022-07-23T11:13:47;23.90;1.00
16881;DHT22;8557;52.068;5.198;2022-07-23T11:16:19;23.90;1.00
16881;DHT22;8557;52.068;5.198;2022-07-23T11:18:54;23.90;1.00
16881;DHT22;8557;52.068;5.198;2022-07-23T11:21:47;23.90;1.00
16881;DHT22;8557;52.068;5.198;2022-07-23T11:24:16;23.80;1.00
16881;DHT22;8557;52.068;5.198;2022-07-23T11:26:46;23.70;1.00
16881;DHT22;8557;52.068;5.198;2022-07-23T11:29:46;23.70;1.00
16881;DHT22;8557;52.068;5.198;2022-07-23T11:32:23;23.70;1.00
16881;DHT22;8557;52.068;5.198;2022-07-23T11:34:51;23.70;1.00
16881;DHT22;8557;52.068;5.198;2022-07-23T11:37:42;23.80;1.00
16881;DHT22;8557;52.068;5.198;2022-07-23T11:40:13;23.90;1.00
16881;DHT22;8557;52.068;5.198;2022-07-23T11:42:50;24.10;1.00
16881;DHT22;8557;52.068;5.198;2022-07-23T11:45:18;24.20;1.00
16881;DHT22;8557;52.068;5.198;2022-07-23T11:47:45;24.30;1.00
16881;DHT22;8557;52.068;5.198;2022-07-23T11:50:12;24.40;1.00
16881;DHT22;8557;52.068;5.198;2022-07-23T11:52:39;24.50;1.00
16881;DHT22;8557;52.068;5.198;2022-07-23T11:55:08;24.70;1.00
16881;DHT22;8557;52.068;5.198;2022-07-23T11:57:36;24.90;1.00
16881;DHT22;8557;52.068;5.198;2022-07-23T12:00:07;25.10;1.00
16881;DHT22;8557;52.068;5.198;2022-07-23T12:02:37;25.20;1.00
16881;DHT22;8557;52.068;5.198;2022-07-23T12:05:05;25.30;1.00
16881;DHT22;8557;52.068;5.198;2022-07-23T12:07:33;25.50;1.00
16881;DHT22;8557;52.068;5.198;2022-07-23T12:10:02;25.70;1.00
16881;DHT22;8557;52.068;5.198;2022-07-23T12:12:35;25.80;1.00
16881;DHT22;8557;52.068;5.198;2022-07-23T12:15:03;25.90;1.00
16881;DHT22;8557;52.068;5.198;2022-07-23T12:17:32;25.90;1.00
16881;DHT22;8557;52.068;5.198;2022-07-23T12:20:01;25.90;1.00
16881;DHT22;8557;52.068;5.198;2022-07-23T12:22:34;25.80;1.00
16881;DHT22;8557;52.068;5.198;2022-07-23T12:25:04;25.80;1.00
16881;DHT22;8557;52.068;5.198;2022-07-23T12:27:31;25.90;1.00
16881;DHT22;8557;52.068;5.198;2022-07-23T12:29:58;26.00;1.00
16881;DHT22;8557;52.068;5.198;2022-07-23T12:32:26;26.10;1.00
16881;DHT22;8557;52.068;5.198;2022-07-23T12:35:04;26.20;1.00
16881;DHT22;8557;52.068;5.198;2022-07-23T12:37:34;26.30;1.00
16881;DHT22;8557;52.068;5.198;2022-07-23T12:40:25;26.50;1.00
16881;DHT22;8557;52.068;5.198;2022-07-23T12:42:54;26.60;1.00
16881;DHT22;8557;52.068;5.198;2022-07-23T12:45:21;26.70;1.00
16881;DHT22;8557;52.068;5.198;2022-07-23T12:48:03;26.80;1.00
16881;DHT22;8557;52.068;5.198;2022-07-23T12:50:34;26.80;1.00
16881;DHT22;8557;52.068;5.198;2022-07-23T12:53:04;27.00;1.00
16881;DHT22;8557;52.068;5.198;2022-07-23T12:55:31;27.20;1.00
16881;DHT22;8557;52.068;5.198;2022-07-23T12:58:04;27.50;1.00
16881;DHT22;8557;52.068;5.198;2022-07-23T13:00:31;27.80;1.00
16881;DHT22;8557;52.068;5.198;2022-07-23T13:02:58;28.20;1.00
16881;DHT22;8557;52.068;5.198;2022-07-23T13:05:25;28.70;1.00
16881;DHT22;8557;52.068;5.198;2022-07-23T13:07:53;29.10;1.00
16881;DHT22;8557;52.068;5.198;2022-07-23T13:10:19;29.50;1.00
16881;DHT22;8557;52.068;5.198;2022-07-23T13:12:46;29.80;1.00
16881;DHT22;8557;52.068;5.198;2022-07-23T13:15:13;30.10;1.00
16881;DHT22;8557;52.068;5.198;2022-07-23T13:17:39;30.40;1.00
16881;DHT22;8557;52.068;5.198;2022-07-23T13:20:10;30.70;1.00
16881;DHT22;8557;52.068;5.198;2022-07-23T13:22:39;31.00;1.00
16881;DHT22;8557;52.068;5.198;2022-07-23T13:25:11;31.40;1.00
16881;DHT22;8557;52.068;5.198;2022-07-23T13:27:37;31.70;1.00
16881;DHT22;8557;52.068;5.198;2022-07-23T13:30:05;31.80;1.00
16881;DHT22;8557;52.068;5.198;2022-07-23T13:32:32;31.80;1.00
16881;DHT22;8557;52.068;5.198;2022-07-23T13:34:59;32.00;1.00
16881;DHT22;8557;52.068;5.198;2022-07-23T13:37:25;32.40;1.00
16881;DHT22;8557;52.068;5.198;2022-07-23T13:39:52;32.70;1.00
16881;DHT22;8557;52.068;5.198;2022-07-23T13:42:20;33.10;1.00
16881;DHT22;8557;52.068;5.198;2022-07-23T13:44:47;33.40;99.90
16881;DHT22;8557;52.068;5.198;2022-07-23T13:47:14;33.50;1.00
16881;DHT22;8557;52.068;5.198;2022-07-23T13:49:40;33.70;99.90
16881;DHT22;8557;52.068;5.198;2022-07-23T13:52:07;33.90;99.90
16881;DHT22;8557;52.068;5.198;2022-07-23T13:54:34;34.10;99.90
16881;DHT22;8557;52.068;5.198;2022-07-23T13:57:00;34.20;99.90
16881;DHT22;8557;52.068;5.198;2022-07-23T13:59:29;34.40;99.90
16881;DHT22;8557;52.068;5.198;2022-07-23T14:01:55;34.60;99.90
16881;DHT22;8557;52.068;5.198;2022-07-23T14:04:23;34.80;99.90
16881;DHT22;8557;52.068;5.198;2022-07-23T14:06:50;35.00;99.90
16881;DHT22;8557;52.068;5.198;2022-07-23T14:09:16;35.00;99.90
16881;DHT22;8557;52.068;5.198;2022-07-23T14:11:43;34.90;99.90
16881;DHT22;8557;52.068;5.198;2022-07-23T14:14:10;34.40;99.90
16881;DHT22;8557;52.068;5.198;2022-07-23T14:16:38;34.30;99.90
16881;DHT22;8557;52.068;5.198;2022-07-23T14:19:05;34.40;99.90
16881;DHT22;8557;52.068;5.198;2022-07-23T14:21:32;34.70;99.90
16881;DHT22;8557;52.068;5.198;2022-07-23T14:23:58;35.10;99.90
16881;DHT22;8557;52.068;5.198;2022-07-23T14:26:25;35.30;99.90
16881;DHT22;8557;52.068;5.198;2022-07-23T14:28:52;35.30;99.90
16881;DHT22;8557;52.068;5.198;2022-07-23T14:31:19;35.30;99.90
16881;DHT22;8557;52.068;5.198;2022-07-23T14:33:47;35.60;99.90
16881;DHT22;8557;52.068;5.198;2022-07-23T14:36:14;35.90;99.90
16881;DHT22;8557;52.068;5.198;2022-07-23T14:38:41;35.70;99.90
16881;DHT22;8557;52.068;5.198;2022-07-23T14:41:08;35.70;99.90
16881;DHT22;8557;52.068;5.198;2022-07-23T14:43:35;35.60;99.90
16881;DHT22;8557;52.068;5.198;2022-07-23T14:46:02;35.60;99.90
16881;DHT22;8557;52.068;5.198;2022-07-23T14:48:28;35.70;99.90
16881;DHT22;8557;52.068;5.198;2022-07-23T14:50:56;35.90;99.90
16881;DHT22;8557;52.068;5.198;2022-07-23T14:53:23;35.80;99.90
16881;DHT22;8557;52.068;5.198;2022-07-23T14:55:50;35.80;99.90
16881;DHT22;8557;52.068;5.198;2022-07-23T14:58:16;35.70;99.90
16881;DHT22;8557;52.068;5.198;2022-07-23T15:00:44;35.70;99.90
16881;DHT22;8557;52.068;5.198;2022-07-23T15:03:10;35.60;99.90
16881;DHT22;8557;52.068;5.198;2022-07-23T15:05:37;35.60;90.00
16881;DHT22;8557;52.068;5.198;2022-07-23T15:08:05;35.70;75.50
16881;DHT22;8557;52.068;5.198;2022-07-23T15:10:32;35.90;32.20
16881;DHT22;8557;52.068;5.198;2022-07-23T15:12:59;36.00;1.00
16881;DHT22;8557;52.068;5.198;2022-07-23T15:15:25;36.90;1.00
16881;DHT22;8557;52.068;5.198;2022-07-23T15:17:52;35.70;1.00
16881;DHT22;8557;52.068;5.198;2022-07-23T15:20:19;38.30;51.10
16881;DHT22;8557;52.068;5.198;2022-07-23T15:22:45;40.00;64.30
16881;DHT22;8557;52.068;5.198;2022-07-23T15:25:14;39.50;93.10
16881;DHT22;8557;52.068;5.198;2022-07-23T15:27:41;38.60;1.00
16881;DHT22;8557;52.068;5.198;2022-07-23T15:30:08;37.70;1.00
16881;DHT22;8557;52.068;5.198;2022-07-23T15:32:35;33.80;1.00
16881;DHT22;8557;52.068;5.198;2022-07-23T15:35:02;34.10;1.00
16881;DHT22;8557;52.068;5.198;2022-07-23T15:37:32;33.80;1.00
16881;DHT22;8557;52.068;5.198;2022-07-23T15:39:59;34.40;1.00
16881;DHT22;8557;52.068;5.198;2022-07-23T15:42:27;34.60;1.00
16881;DHT22;8557;52.068;5.198;2022-07-23T15:44:53;35.70;1.00
16881;DHT22;8557;52.068;5.198;2022-07-23T15:47:20;37.10;1.00
16881;DHT22;8557;52.068;5.198;2022-07-23T15:49:47;38.50;1.00
16881;DHT22;8557;52.068;5.198;2022-07-23T15:52:14;37.70;1.00
16881;DHT22;8557;52.068;5.198;2022-07-23T15:54:41;35.00;1.00
16881;DHT22;8557;52.068;5.198;2022-07-23T15:57:08;34.20;1.00
16881;DHT22;8557;52.068;5.198;2022-07-23T15:59:37;33.30;1.00
16881;DHT22;8557;52.068;5.198;2022-07-23T16:02:04;32.10;1.00
16881;DHT22;8557;52.068;5.198;2022-07-23T16:04:31;31.50;1.00
16881;DHT22;8557;52.068;5.198;2022-07-23T16:06:58;31.30;1.00